Terminal Aerodrome Forecast
Issued by NWS Shreveport, LA

Home | Current Version | Previous Version | Text Only | Print | Product List | Glossary On
Versions: 1 2 3 4 5 6 7 8 9 10 11 12 13 14
000
FTUS44 KSHV 060520
TAFLFK
TAF
KLFK 060520Z 0606/0706 13006KT P6SM FEW060 SCT100 BKN250
     FM060800 13006KT P6SM SCT015 BKN100 BKN250
      TEMPO 0608/0611 BKN015
     FM061100 13006KT P6SM SCT008 BKN015
      TEMPO 0612/0615 BKN008
     FM061600 14010KT P6SM BKN025
     FM061700 15011KT P6SM BKN040
     FM070100 14006KT P6SM FEW060 SCT250=

USA.gov is the U.S. government's official web portal to all federal, state and local government web resources and services.